Search for airport 
image banner adimage banner adimage banner ad
image banner ad

NV83 - Hadley

Located in Round Mountain, United States

ICAO - NV83, IATA -

Data provided by Airmate  

General information

Coordinates: N38°41'39" W117°8'48"
Elevation is 5744 feet MSL.
Magnetic variation is 15° East
View others Airports in Nevada

Operational data

Special qualification required
Current time UTC:
Current local time:
Weather at : KTPH - Tonopah ( 71 km )
METAR: KTPH 092256Z AUTO 33013KT 10SM CLR 22/M12 A2994 RMK AO2 WSHFT 2232 SLP094 T02171122
TAF: KTPH 091721Z 0918/1018 VRB03KT P6SM SKC FM100000 31012G21KT P6SM FEW200 FM100300 33016G29KT P6SM FEW200 FM100900 35008KT P6SM FEW250
View NOTAMs / SUP AIP / TFR affecting this airport [VIEW]
Communications frequencies: [VIEW]

Runways:

RWY identifierQFULength (ft)Width (ft)SurfaceLDA (ft)
17677660ASPH
35677660ASPH

Airport contact information

Address: Round Mountain United States

Satellite view of NV83